createdAt,value
2022-12-24T00:01:32.017Z,78.58
2022-12-24T00:04:00.394Z,78.83
2022-12-24T00:06:26.802Z,79.00
2022-12-24T00:08:53.331Z,79.68
2022-12-24T00:11:19.693Z,79.28
2022-12-24T00:13:46.520Z,79.56
2022-12-24T00:16:12.978Z,79.42
2022-12-24T02:25:32.824Z,76.32
2022-12-24T02:27:59.210Z,76.98
2022-12-24T02:30:25.573Z,76.97
2022-12-24T02:32:51.968Z,77.40
2022-12-24T02:35:19.238Z,77.79
2022-12-24T02:37:48.116Z,78.71
2022-12-24T02:40:16.780Z,78.23
2022-12-24T02:42:43.856Z,77.83
2022-12-24T02:45:10.436Z,77.51
2022-12-24T02:47:37.034Z,78.23
2022-12-24T02:50:07.123Z,77.99
2022-12-24T02:52:33.954Z,77.95
2022-12-24T02:55:02.341Z,78.50
2022-12-24T02:57:28.747Z,79.27
2022-12-24T02:59:55.259Z,80.08
2022-12-24T03:02:22.608Z,80.74
2022-12-24T03:04:49.236Z,80.48
2022-12-24T03:07:15.740Z,79.77
2022-12-24T03:09:42.568Z,79.44
2022-12-24T03:12:09.083Z,78.38
2022-12-24T03:14:35.588Z,79.11
2022-12-24T03:17:02.283Z,79.51
2022-12-24T03:19:29.073Z,79.75
2022-12-24T03:21:58.673Z,79.20
2022-12-24T03:24:25.132Z,79.05
2022-12-24T03:26:53.069Z,79.42
2022-12-24T03:29:19.664Z,78.73
2022-12-24T03:31:46.070Z,78.99
2022-12-24T03:34:12.547Z,78.75
2022-12-24T03:36:38.893Z,78.42
2022-12-24T03:39:05.342Z,78.28
2022-12-24T03:41:31.690Z,78.06
2022-12-24T03:43:58.074Z,78.16
2022-12-24T03:46:24.857Z,78.15
2022-12-24T03:48:51.285Z,78.27
2022-12-24T03:51:17.625Z,78.63
2022-12-24T03:53:43.961Z,78.86
2022-12-24T03:56:10.308Z,78.91
2022-12-24T03:58:36.627Z,78.96
2022-12-24T04:01:03.040Z,79.06
2022-12-24T04:03:29.681Z,79.71
2022-12-24T04:05:56.602Z,79.66
2022-12-24T04:08:23.372Z,79.61
2022-12-24T04:10:50.790Z,79.94
2022-12-24T04:13:17.346Z,79.42
2022-12-24T04:15:43.751Z,78.98
2022-12-24T04:18:10.476Z,78.85
2022-12-24T04:20:38.869Z,78.52
2022-12-24T04:23:06.412Z,78.98
2022-12-24T04:25:36.284Z,79.17
2022-12-24T04:28:03.090Z,79.45
2022-12-24T04:30:30.578Z,79.55
2022-12-24T04:32:57.668Z,80.67
2022-12-24T04:35:24.154Z,81.21
2022-12-24T04:37:50.618Z,80.96
2022-12-24T04:40:16.988Z,82.75
2022-12-24T04:42:43.317Z,81.92
2022-12-24T04:45:09.961Z,82.29
2022-12-24T04:47:36.419Z,81.17
2022-12-24T04:50:03.213Z,81.64
2022-12-24T04:52:31.055Z,82.40
2022-12-24T04:54:57.515Z,82.75
2022-12-24T04:57:24.968Z,82.63
2022-12-24T04:59:51.557Z,83.02
2022-12-24T05:02:18.569Z,82.06
2022-12-24T05:04:46.002Z,81.07
2022-12-24T05:07:13.909Z,81.28
2022-12-24T05:09:42.757Z,81.59
2022-12-24T05:12:09.280Z,81.61
2022-12-24T05:14:35.788Z,82.31
2022-12-24T05:17:03.268Z,82.15
2022-12-24T05:19:30.006Z,82.17
2022-12-24T05:21:56.485Z,82.04
2022-12-24T05:24:28.830Z,81.29
2022-12-24T05:26:55.355Z,81.32
2022-12-24T05:29:21.817Z,81.13
2022-12-24T05:31:48.219Z,80.96
2022-12-24T05:34:14.904Z,81.00
2022-12-24T05:39:21.827Z,81.42
2022-12-24T05:41:48.636Z,80.33
2022-12-24T05:44:19.174Z,80.20
2022-12-24T05:46:45.798Z,79.21
2022-12-24T05:49:12.655Z,80.44
2022-12-24T05:51:39.678Z,80.00
2022-12-24T05:54:06.098Z,80.39
2022-12-24T05:56:32.899Z,80.21
2022-12-24T05:58:59.711Z,79.79
2022-12-24T06:01:26.481Z,79.95
2022-12-24T06:03:55.222Z,79.65
2022-12-24T06:06:21.833Z,79.57
2022-12-24T06:08:48.200Z,79.11
2022-12-24T06:11:15.703Z,78.92
2022-12-24T06:13:42.318Z,78.54
2022-12-24T06:16:09.293Z,78.49
2022-12-24T06:18:35.959Z,79.81
2022-12-24T06:21:02.425Z,79.22
2022-12-24T06:23:29.204Z,78.82
2022-12-24T06:25:55.702Z,79.12
2022-12-24T06:28:25.048Z,79.40
2022-12-24T06:31:02.190Z,79.06
2022-12-24T06:33:29.478Z,79.12
2022-12-24T06:35:56.015Z,80.42
2022-12-24T06:38:22.442Z,80.42
2022-12-24T06:40:49.146Z,79.55
2022-12-24T06:43:17.339Z,80.04
2022-12-24T06:45:45.932Z,80.45
2022-12-24T06:48:12.582Z,79.67
2022-12-24T06:50:39.980Z,80.14
2022-12-24T06:53:06.607Z,80.05
2022-12-24T06:55:33.293Z,80.19
2022-12-24T06:58:01.117Z,80.14
2022-12-24T07:00:27.464Z,80.35
2022-12-24T07:02:53.960Z,79.99
2022-12-24T07:05:20.450Z,79.96
2022-12-24T07:07:47.327Z,80.03
2022-12-24T07:10:13.672Z,79.82
2022-12-24T07:12:40.109Z,80.04
2022-12-24T07:15:06.473Z,79.19
2022-12-24T07:17:32.903Z,79.23
2022-12-24T07:19:59.339Z,79.26
2022-12-24T07:22:25.665Z,79.58
2022-12-24T07:24:52.070Z,79.26
2022-12-24T07:27:18.416Z,79.21
2022-12-24T07:29:44.782Z,79.15
2022-12-24T07:32:11.125Z,79.30
2022-12-24T07:34:37.685Z,79.61
2022-12-24T07:37:04.126Z,79.31
2022-12-24T07:39:30.527Z,79.45
2022-12-24T07:41:56.902Z,80.34
2022-12-24T07:44:23.352Z,80.53
2022-12-24T07:46:49.967Z,80.07
2022-12-24T07:49:16.643Z,79.41
2022-12-24T07:51:43.054Z,79.88
2022-12-24T07:54:09.688Z,79.82
2022-12-24T07:56:36.074Z,79.29
2022-12-24T07:59:03.108Z,79.29
2022-12-24T08:01:29.907Z,80.24
2022-12-24T08:03:58.880Z,79.81
2022-12-24T08:06:25.279Z,79.90
2022-12-24T08:08:51.663Z,79.59
2022-12-24T08:11:18.044Z,80.15
2022-12-24T08:13:44.491Z,80.10
2022-12-24T08:16:10.965Z,80.29
2022-12-24T08:18:37.337Z,81.13
2022-12-24T08:21:05.287Z,81.51
2022-12-24T08:23:31.914Z,81.41
2022-12-24T08:26:00.216Z,80.83
2022-12-24T08:28:29.136Z,80.58
2022-12-24T08:30:56.611Z,79.72
2022-12-24T08:33:23.089Z,79.92
2022-12-24T08:35:49.615Z,79.28
2022-12-24T08:38:16.426Z,79.11
2022-12-24T08:40:42.829Z,80.13
2022-12-24T08:43:13.418Z,80.46
2022-12-24T08:45:41.389Z,79.92
2022-12-24T08:48:07.810Z,80.01
2022-12-24T08:50:34.252Z,80.55
2022-12-24T08:53:00.634Z,80.82
2022-12-24T08:55:34.800Z,80.63
2022-12-24T08:58:01.405Z,81.04
2022-12-24T09:00:28.764Z,80.78
2022-12-24T09:02:56.825Z,80.73
2022-12-24T09:05:23.929Z,80.05
2022-12-24T09:07:51.825Z,80.12
2022-12-24T09:10:20.495Z,79.87
2022-12-24T09:12:47.039Z,80.27
2022-12-24T09:15:13.899Z,79.82
2022-12-24T09:17:40.299Z,80.25
2022-12-24T09:20:07.033Z,79.72
2022-12-24T09:22:35.371Z,79.87
2022-12-24T09:25:01.841Z,80.12
2022-12-24T09:27:28.296Z,79.78
2022-12-24T09:29:55.020Z,79.32
2022-12-24T09:32:24.398Z,79.29
2022-12-24T09:34:53.252Z,79.38
2022-12-24T09:37:20.144Z,79.21
2022-12-24T09:39:46.537Z,78.77
2022-12-24T09:42:15.757Z,78.92
2022-12-24T09:44:42.221Z,78.77
2022-12-24T09:47:14.032Z,78.52
2022-12-24T09:49:40.652Z,78.58
2022-12-24T09:52:07.390Z,78.12
2022-12-24T09:54:34.140Z,78.30
2022-12-24T09:57:00.505Z,78.22
2022-12-24T09:59:30.617Z,77.89
2022-12-24T10:04:41.925Z,78.36
2022-12-24T10:07:09.297Z,77.88
2022-12-24T10:09:38.467Z,78.53
2022-12-24T10:12:07.175Z,79.14
2022-12-24T10:14:33.779Z,78.65
2022-12-24T10:17:06.526Z,79.04
2022-12-24T10:19:32.975Z,78.65
2022-12-24T10:21:59.809Z,79.28
2022-12-24T10:24:26.205Z,79.33
2022-12-24T10:26:52.556Z,79.34
2022-12-24T10:29:20.092Z,78.41
2022-12-24T10:31:47.511Z,79.09
2022-12-24T10:34:14.113Z,79.63
2022-12-24T10:36:41.454Z,79.86
2022-12-24T10:39:08.609Z,80.02
2022-12-24T10:41:35.217Z,79.66
2022-12-24T10:44:01.633Z,79.88
2022-12-24T10:46:28.432Z,79.76
2022-12-24T10:48:57.331Z,79.54
2022-12-24T10:51:23.729Z,79.42
2022-12-24T10:53:50.442Z,79.41
2022-12-24T10:56:16.921Z,79.59
2022-12-24T10:58:43.643Z,79.70
2022-12-24T11:01:10.852Z,79.58
2022-12-24T11:03:37.415Z,79.40
2022-12-24T11:06:03.995Z,79.65
2022-12-24T11:08:31.737Z,79.08
2022-12-24T11:10:58.157Z,79.32
2022-12-24T11:13:40.187Z,79.56
2022-12-24T11:16:06.669Z,79.64
2022-12-24T11:18:33.170Z,79.67
2022-12-24T11:21:00.580Z,79.93
2022-12-24T11:23:27.392Z,79.29
2022-12-24T11:25:54.097Z,78.82
2022-12-24T11:28:20.810Z,77.56
2022-12-24T11:30:48.383Z,78.20
2022-12-24T11:33:15.878Z,78.92
2022-12-24T11:35:42.297Z,78.76
2022-12-24T11:38:08.800Z,77.86
2022-12-24T11:40:36.007Z,78.42
2022-12-24T11:43:02.438Z,78.30
2022-12-24T11:45:28.907Z,78.80
2022-12-24T11:47:55.374Z,79.35
2022-12-24T11:50:22.141Z,79.37
2022-12-24T11:52:49.164Z,79.13
2022-12-24T11:55:16.645Z,79.20
2022-12-24T11:57:43.276Z,79.26
2022-12-24T12:00:10.750Z,78.98
2022-12-24T12:02:37.545Z,79.43
2022-12-24T12:05:04.036Z,79.68
2022-12-24T12:07:30.630Z,79.75
2022-12-24T12:09:57.028Z,79.68
2022-12-24T12:12:23.806Z,79.45
2022-12-24T12:14:50.625Z,79.14
2022-12-24T12:17:17.092Z,79.17
2022-12-24T12:19:46.096Z,79.22
2022-12-24T12:22:12.734Z,79.30
2022-12-24T12:24:39.118Z,79.02
2022-12-24T12:27:05.500Z,79.28
2022-12-24T12:29:31.894Z,79.31
2022-12-24T12:31:58.603Z,78.97
2022-12-24T12:34:25.042Z,78.56
2022-12-24T12:36:52.518Z,78.70
2022-12-24T12:39:26.373Z,78.25
2022-12-24T12:41:53.109Z,77.95
2022-12-24T12:44:25.380Z,78.13
2022-12-24T12:46:52.632Z,78.51
2022-12-24T12:49:19.272Z,78.96
2022-12-24T12:51:45.786Z,78.93
2022-12-24T12:54:13.577Z,79.01
2022-12-24T12:56:41.745Z,79.75
2022-12-24T12:59:08.385Z,79.81
2022-12-24T13:01:34.970Z,79.47
2022-12-24T13:04:01.576Z,79.44
2022-12-24T13:06:28.470Z,79.28
2022-12-24T13:08:56.085Z,78.97
2022-12-24T13:11:22.768Z,79.07
2022-12-24T13:13:49.279Z,79.34
2022-12-24T13:16:15.994Z,78.99
2022-12-24T13:18:42.408Z,78.90
2022-12-24T13:21:08.839Z,78.97
2022-12-24T13:23:35.252Z,78.67
2022-12-24T13:26:01.951Z,78.81
2022-12-24T13:28:28.682Z,78.45
2022-12-24T13:30:55.167Z,78.54
2022-12-24T13:33:23.461Z,78.97
2022-12-24T13:35:49.953Z,79.72
2022-12-24T13:38:16.333Z,80.11
2022-12-24T13:40:42.822Z,79.94
2022-12-24T13:43:11.672Z,80.07
2022-12-24T13:45:38.203Z,79.60
2022-12-24T13:48:05.713Z,78.67
2022-12-24T13:50:32.051Z,79.11
2022-12-24T13:52:58.509Z,78.60
2022-12-24T13:55:27.346Z,78.32
2022-12-24T13:57:53.772Z,78.46
2022-12-24T14:00:20.173Z,79.27
2022-12-24T14:02:54.157Z,79.44
2022-12-24T14:05:21.816Z,78.93
2022-12-24T14:07:48.393Z,79.04
2022-12-24T14:10:14.843Z,79.92
2022-12-24T14:12:42.241Z,79.38
2022-12-24T14:15:12.699Z,79.43
2022-12-24T14:17:39.252Z,79.30
2022-12-24T14:20:05.768Z,79.31
2022-12-24T14:22:32.671Z,79.07
2022-12-24T14:25:01.575Z,78.31
2022-12-24T14:27:27.947Z,78.87
2022-12-24T14:29:56.666Z,78.85
2022-12-24T14:32:25.466Z,79.40
2022-12-24T14:34:51.851Z,79.70
2022-12-24T14:37:18.355Z,79.72
2022-12-24T14:39:49.575Z,79.18
2022-12-24T14:42:16.032Z,78.98
2022-12-24T14:44:42.492Z,79.04
2022-12-24T14:47:08.961Z,78.99
2022-12-24T14:49:35.617Z,78.24
2022-12-24T14:52:02.075Z,77.98
2022-12-24T14:54:28.810Z,77.63
2022-12-24T14:56:55.453Z,78.61
2022-12-24T14:59:21.898Z,78.91
2022-12-24T15:01:48.858Z,79.64
2022-12-24T15:04:15.438Z,79.73
2022-12-24T15:06:41.831Z,79.61
2022-12-24T15:09:09.719Z,79.32
2022-12-24T15:11:36.144Z,79.28
2022-12-24T15:14:02.553Z,79.52
2022-12-24T15:16:36.701Z,79.05
2022-12-24T15:19:03.114Z,79.23
2022-12-24T15:21:29.821Z,79.13
2022-12-24T15:23:56.298Z,79.60
2022-12-24T15:26:23.553Z,79.28
2022-12-24T15:28:49.920Z,79.33
2022-12-24T15:31:16.369Z,79.12
2022-12-24T15:33:45.485Z,79.37
2022-12-24T15:36:12.200Z,79.49
2022-12-24T15:38:38.745Z,79.78
2022-12-24T15:41:05.491Z,79.53
2022-12-24T15:43:34.704Z,79.57
2022-12-24T15:46:01.154Z,79.75
2022-12-24T15:48:28.034Z,80.12
2022-12-24T15:50:54.870Z,79.90
2022-12-24T15:53:22.422Z,80.00
2022-12-24T15:55:48.963Z,80.00
2022-12-24T15:58:15.410Z,80.23
2022-12-24T16:00:44.247Z,79.65
2022-12-24T16:03:10.729Z,80.22
2022-12-24T16:05:40.155Z,80.27
2022-12-24T16:08:06.754Z,79.93
2022-12-24T16:10:38.183Z,80.16
2022-12-24T16:13:04.749Z,79.73
2022-12-24T16:15:31.275Z,79.76
2022-12-24T16:18:00.844Z,79.90
2022-12-24T16:20:27.486Z,79.71
2022-12-24T16:22:54.472Z,80.03
2022-12-24T16:25:21.806Z,80.73
2022-12-24T16:27:48.401Z,81.21
2022-12-24T16:30:16.250Z,80.76
2022-12-24T16:32:42.906Z,81.09
2022-12-24T16:35:09.372Z,80.57
2022-12-24T16:37:38.941Z,80.53
2022-12-24T16:40:05.440Z,80.44
2022-12-24T16:42:32.122Z,80.53
2022-12-24T16:45:01.573Z,80.44
2022-12-24T16:47:30.155Z,80.27
2022-12-24T16:49:57.261Z,79.83
2022-12-24T16:52:24.551Z,79.90
2022-12-24T16:54:51.591Z,80.15
2022-12-24T16:57:19.086Z,80.24
2022-12-24T16:59:46.048Z,80.17
2022-12-24T17:02:14.697Z,80.37
2022-12-24T17:04:41.853Z,80.50
2022-12-24T17:07:08.313Z,80.73
2022-12-24T17:09:37.612Z,80.92
2022-12-24T17:12:04.267Z,80.57
2022-12-24T17:14:33.037Z,80.39
2022-12-24T17:16:59.478Z,80.83
2022-12-24T17:19:26.773Z,80.56
2022-12-24T17:21:54.698Z,80.71
2022-12-24T17:24:21.519Z,80.90
2022-12-24T17:26:50.869Z,80.44
2022-12-24T17:29:17.357Z,80.86
2022-12-24T17:31:45.369Z,80.55
2022-12-24T17:34:12.056Z,80.45
2022-12-24T17:36:39.184Z,80.71
2022-12-24T17:39:05.676Z,80.48
2022-12-24T17:41:32.158Z,80.65
2022-12-24T17:44:02.673Z,80.76
2022-12-24T17:46:32.356Z,80.79
2022-12-24T17:48:58.778Z,80.45
2022-12-24T17:51:28.133Z,80.34
2022-12-24T17:53:54.887Z,80.53
2022-12-24T17:56:21.234Z,80.42
2022-12-24T17:58:50.455Z,80.90
2022-12-24T18:01:17.217Z,80.63
2022-12-24T18:03:44.115Z,80.58
2022-12-24T18:06:10.659Z,80.57
2022-12-24T18:08:38.534Z,81.06
2022-12-24T18:11:04.973Z,81.39
2022-12-24T18:13:31.350Z,80.83
2022-12-24T18:15:58.225Z,80.84
2022-12-24T18:18:25.074Z,80.80
2022-12-24T18:20:51.514Z,80.98
2022-12-24T18:23:17.994Z,81.11
2022-12-24T18:25:44.431Z,81.27
2022-12-24T18:28:10.921Z,81.08
2022-12-24T18:30:37.366Z,80.55
2022-12-24T18:33:04.146Z,80.77
2022-12-24T18:35:41.827Z,80.78
2022-12-24T18:38:08.269Z,80.51
2022-12-24T18:40:37.490Z,80.94
2022-12-24T18:43:06.378Z,80.32
2022-12-24T18:45:33.002Z,80.74
2022-12-24T18:47:59.845Z,80.63
2022-12-24T18:50:28.534Z,80.38
2022-12-24T18:52:58.184Z,80.74
2022-12-24T18:55:24.890Z,80.99
2022-12-24T18:57:51.671Z,81.33
2022-12-24T19:00:18.375Z,81.58
2022-12-24T19:02:45.103Z,81.04
2022-12-24T19:05:22.984Z,81.20
2022-12-24T19:07:49.644Z,81.11
2022-12-24T19:10:16.608Z,81.03
2022-12-24T19:12:45.614Z,80.58
2022-12-24T19:15:12.135Z,80.75
2022-12-24T19:17:46.679Z,81.13
2022-12-24T19:20:13.137Z,81.10
2022-12-24T19:22:39.635Z,81.06
2022-12-24T19:25:06.260Z,80.42
2022-12-24T19:27:32.958Z,80.48
2022-12-24T19:29:59.353Z,80.72
2022-12-24T19:32:26.165Z,80.52
2022-12-24T19:34:54.975Z,80.58
2022-12-24T19:37:22.306Z,80.51
2022-12-24T19:39:48.704Z,81.30
2022-12-24T19:42:15.619Z,81.59
2022-12-24T19:44:42.411Z,82.16
2022-12-24T19:47:09.854Z,82.22
2022-12-24T19:49:36.388Z,82.32
2022-12-24T19:52:03.728Z,82.73
2022-12-24T19:54:31.661Z,82.10
2022-12-24T19:56:58.079Z,82.71
2022-12-24T19:59:24.470Z,82.65
2022-12-24T20:01:51.633Z,82.31
2022-12-24T20:04:18.302Z,82.08
2022-12-24T20:06:44.924Z,82.08
2022-12-24T20:09:12.384Z,81.50
2022-12-24T20:11:40.299Z,81.69
2022-12-24T20:14:06.815Z,81.82
2022-12-24T20:16:33.368Z,81.20
2022-12-24T20:19:00.794Z,81.43
2022-12-24T20:21:29.800Z,81.31
2022-12-24T20:23:56.277Z,82.38
2022-12-24T20:26:22.715Z,82.41
2022-12-24T20:28:50.276Z,82.39
2022-12-24T20:31:16.970Z,83.13
2022-12-24T20:33:44.133Z,83.04
2022-12-24T20:36:10.943Z,83.43
2022-12-24T20:38:37.959Z,83.37
2022-12-24T20:41:04.325Z,83.45
2022-12-24T20:43:36.166Z,83.65
2022-12-24T20:46:05.172Z,83.26
2022-12-24T20:48:32.114Z,83.63
2022-12-24T20:50:58.552Z,83.28
2022-12-24T20:53:25.782Z,82.44
2022-12-24T20:55:53.117Z,82.00
2022-12-24T20:58:19.519Z,82.49
2022-12-24T21:00:48.024Z,82.55
2022-12-24T21:03:14.515Z,82.14
2022-12-24T21:05:42.125Z,82.21
2022-12-24T21:08:08.529Z,82.41
2022-12-24T21:10:37.665Z,81.66
2022-12-24T21:13:04.201Z,81.85
2022-12-24T21:15:30.735Z,81.47
2022-12-24T21:17:57.212Z,81.61
2022-12-24T21:20:23.579Z,81.48
2022-12-24T21:22:49.961Z,82.02
2022-12-24T21:25:16.681Z,81.52
2022-12-24T21:27:43.322Z,81.53
2022-12-24T21:30:11.199Z,81.81
2022-12-24T21:32:38.629Z,82.13
2022-12-24T21:35:06.749Z,82.29
2022-12-24T21:37:33.149Z,82.59
2022-12-24T21:40:00.653Z,82.44
2022-12-24T21:42:27.530Z,82.82
2022-12-24T21:44:55.487Z,82.62
2022-12-24T21:47:21.969Z,82.51
2022-12-24T21:49:48.741Z,82.49
2022-12-24T21:52:15.498Z,82.41
2022-12-24T21:54:42.535Z,82.61
2022-12-24T21:57:09.010Z,82.10
2022-12-24T21:59:35.419Z,82.43
2022-12-24T22:02:02.981Z,82.52
2022-12-24T22:04:29.622Z,82.07
2022-12-24T22:06:56.620Z,82.32
2022-12-24T22:09:23.009Z,82.10
2022-12-24T22:11:54.326Z,81.75
2022-12-24T22:14:21.632Z,82.22
2022-12-24T22:16:48.296Z,81.47
2022-12-24T22:19:15.264Z,81.32
2022-12-24T22:21:42.066Z,81.77
2022-12-24T22:24:08.784Z,81.33
2022-12-24T22:26:35.265Z,81.67
2022-12-24T22:29:01.827Z,81.92
2022-12-24T22:31:28.220Z,81.37
2022-12-24T22:33:55.617Z,81.60
2022-12-24T22:36:22.025Z,81.53
2022-12-24T22:38:52.713Z,81.64
2022-12-24T22:41:22.447Z,81.22
2022-12-24T22:43:48.939Z,81.47
2022-12-24T22:46:15.425Z,81.93
2022-12-24T22:48:41.881Z,81.77
2022-12-24T22:51:08.288Z,82.45
2022-12-24T22:53:34.677Z,82.63
2022-12-24T22:56:01.434Z,83.21
2022-12-24T22:58:28.162Z,82.87
2022-12-24T23:00:54.869Z,83.11
2022-12-24T23:03:21.763Z,83.78
2022-12-24T23:08:28.573Z,83.38
2022-12-24T23:10:55.489Z,83.84
2022-12-24T23:13:22.376Z,84.14
2022-12-24T23:15:50.118Z,84.02
2022-12-24T23:18:16.942Z,83.74
2022-12-24T23:20:43.675Z,83.14
2022-12-24T23:23:10.439Z,82.76
2022-12-24T23:25:36.919Z,83.11
2022-12-24T23:28:03.454Z,82.84
2022-12-24T23:30:29.908Z,83.03
2022-12-24T23:32:58.034Z,82.44
2022-12-24T23:35:24.451Z,82.11
2022-12-24T23:37:51.363Z,81.94
2022-12-24T23:40:18.525Z,81.90
2022-12-24T23:42:47.916Z,81.53
2022-12-24T23:45:14.392Z,81.92
2022-12-24T23:47:41.050Z,81.90
2022-12-24T23:50:07.839Z,82.68
2022-12-24T23:52:36.724Z,82.23
2022-12-24T23:55:03.213Z,82.63
2022-12-24T23:57:29.623Z,82.49
2022-12-24T23:59:56.413Z,82.03
